createdAt,value
2022-11-20T00:00:12.557Z,16.60
2022-11-20T00:03:01.984Z,14.40
2022-11-20T00:05:49.918Z,17.08
2022-11-20T00:08:38.228Z,17.25
2022-11-20T00:11:28.611Z,14.80
2022-11-20T00:14:16.578Z,18.90
2022-11-20T00:17:04.671Z,17.55
2022-11-20T00:19:53.879Z,14.88
2022-11-20T00:22:41.802Z,17.90
2022-11-20T00:25:29.834Z,16.95
2022-11-20T00:28:17.712Z,14.98
2022-11-20T00:31:07.246Z,16.58
2022-11-20T00:33:55.320Z,17.45
2022-11-20T00:36:44.688Z,20.63
2022-11-20T00:39:32.603Z,19.48
2022-11-20T00:42:20.427Z,16.92
2022-11-20T00:45:09.334Z,25.02
2022-11-20T00:47:57.185Z,20.05
2022-11-20T00:50:45.173Z,15.93
2022-11-20T00:53:34.582Z,16.30
2022-11-20T00:56:23.061Z,16.23
2022-11-20T00:59:11.860Z,15.23
2022-11-20T01:01:59.875Z,15.82
2022-11-20T01:04:47.619Z,15.93
2022-11-20T01:07:35.285Z,15.73
2022-11-20T01:10:24.707Z,22.23
2022-11-20T01:13:30.408Z,18.58
2022-11-20T01:16:20.349Z,17.15
2022-11-20T01:19:09.887Z,15.85
2022-11-20T01:21:57.974Z,18.65
2022-11-20T01:24:45.821Z,18.90
2022-11-20T01:27:35.298Z,17.42
2022-11-20T01:30:23.191Z,17.42
2022-11-20T01:33:11.095Z,17.45
2022-11-20T01:36:07.322Z,15.85
2022-11-20T01:39:27.983Z,21.38
2022-11-20T01:42:33.220Z,17.25
2022-11-20T01:45:58.161Z,17.73
2022-11-20T01:48:52.723Z,17.58
2022-11-20T01:51:44.166Z,17.15
2022-11-20T01:54:38.119Z,18.73
2022-11-20T01:57:28.909Z,16.15
2022-11-20T02:00:19.190Z,15.80
2022-11-20T02:03:11.967Z,16.00
2022-11-20T02:06:09.035Z,16.98
2022-11-20T02:08:57.130Z,17.20
2022-11-20T02:11:45.410Z,16.05
2022-11-20T02:14:32.597Z,18.20
2022-11-20T02:17:20.657Z,14.30
2022-11-20T02:20:11.388Z,15.23
2022-11-20T02:23:05.392Z,15.25
2022-11-20T02:25:56.561Z,15.80
2022-11-20T02:28:44.720Z,15.73
2022-11-20T02:31:42.318Z,16.52
2022-11-20T02:34:30.845Z,17.00
2022-11-20T02:37:20.315Z,18.15
2022-11-20T02:40:09.844Z,18.73
2022-11-20T02:42:59.913Z,18.90
2022-11-20T02:45:47.758Z,19.33
2022-11-20T02:48:35.741Z,14.50
2022-11-20T02:51:24.261Z,18.63
2022-11-20T02:54:12.094Z,18.67
2022-11-20T02:57:00.023Z,20.27
2022-11-20T02:59:49.826Z,16.95
2022-11-20T03:02:37.864Z,18.13
2022-11-20T03:05:26.205Z,16.60
2022-11-20T03:08:13.857Z,17.17
2022-11-20T03:11:07.217Z,17.60
2022-11-20T03:13:55.277Z,16.63
2022-11-20T03:16:47.039Z,18.25
2022-11-20T03:19:35.233Z,19.02
2022-11-20T03:22:23.358Z,18.30
2022-11-20T03:25:11.571Z,18.65
2022-11-20T03:27:59.163Z,18.63
2022-11-20T03:30:47.119Z,19.48
2022-11-20T03:33:36.509Z,17.00
2022-11-20T03:36:24.980Z,16.58
2022-11-20T03:39:12.985Z,19.15
2022-11-20T03:42:01.086Z,18.65
2022-11-20T03:44:49.113Z,18.85
2022-11-20T03:47:37.388Z,23.80
2022-11-20T03:50:26.548Z,22.98
2022-11-20T03:53:14.464Z,18.52
2022-11-20T03:56:02.392Z,15.38
2022-11-20T03:58:50.338Z,19.10
2022-11-20T04:01:39.298Z,18.13
2022-11-20T04:04:27.360Z,17.80
2022-11-20T04:07:16.763Z,17.80
2022-11-20T04:10:04.851Z,17.80
2022-11-20T04:12:52.747Z,22.67
2022-11-20T04:15:40.305Z,18.65
2022-11-20T04:18:28.194Z,19.75
2022-11-20T04:21:16.315Z,17.65
2022-11-20T04:24:06.269Z,21.50
2022-11-20T04:26:54.113Z,18.67
2022-11-20T04:29:43.634Z,17.40
2022-11-20T04:32:31.525Z,20.92
2022-11-20T04:35:19.470Z,19.15
2022-11-20T04:38:07.695Z,17.80
2022-11-20T04:41:00.450Z,17.05
2022-11-20T04:43:50.464Z,18.95
2022-11-20T04:46:40.777Z,21.02
2022-11-20T04:49:28.521Z,18.30
2022-11-20T04:52:16.824Z,15.48
2022-11-20T04:55:05.385Z,21.08
2022-11-20T04:57:54.488Z,17.33
2022-11-20T05:00:42.520Z,17.63
2022-11-20T05:03:30.425Z,19.15
2022-11-20T05:06:20.758Z,19.50
2022-11-20T05:09:08.723Z,19.42
2022-11-20T05:11:56.791Z,22.42
2022-11-20T05:14:46.075Z,19.27
2022-11-20T05:17:34.005Z,17.55
2022-11-20T05:20:22.557Z,20.58
2022-11-20T05:23:10.465Z,16.77
2022-11-20T05:25:59.756Z,19.17
2022-11-20T05:28:49.197Z,19.05
2022-11-20T05:31:38.266Z,18.25
2022-11-20T05:34:25.922Z,23.13
2022-11-20T05:37:13.946Z,21.50
2022-11-20T05:40:02.104Z,20.15
2022-11-20T05:42:50.043Z,17.05
2022-11-20T05:45:39.069Z,18.92
2022-11-20T05:48:28.544Z,19.17
2022-11-20T05:51:19.386Z,19.73
2022-11-20T05:54:07.290Z,19.50
2022-11-20T05:56:55.397Z,16.42
2022-11-20T05:59:43.564Z,17.35
2022-11-20T06:02:31.425Z,17.15
2022-11-20T06:05:22.147Z,17.70
2022-11-20T06:08:09.998Z,21.33
2022-11-20T06:10:58.037Z,28.27
2022-11-20T06:13:46.679Z,19.30
2022-11-20T06:16:34.576Z,18.65
2022-11-20T06:19:22.627Z,20.15
2022-11-20T06:22:11.781Z,16.90
2022-11-20T06:24:59.504Z,22.08
2022-11-20T06:27:47.652Z,18.17
2022-11-20T06:30:35.893Z,19.13
2022-11-20T06:33:23.705Z,19.13
2022-11-20T06:36:12.965Z,23.23
2022-11-20T06:39:10.396Z,20.52
2022-11-20T06:41:59.261Z,25.80
2022-11-20T06:44:47.309Z,18.65
2022-11-20T06:47:35.095Z,19.15
2022-11-20T06:50:23.118Z,19.13
2022-11-20T06:53:10.861Z,17.15
2022-11-20T06:56:00.600Z,17.50
2022-11-20T06:58:48.636Z,17.50
2022-11-20T07:01:36.982Z,16.13
2022-11-20T07:04:25.005Z,19.38
2022-11-20T07:07:12.924Z,17.92
2022-11-20T07:10:01.078Z,20.08
2022-11-20T07:12:54.082Z,17.67
2022-11-20T07:18:29.702Z,19.40
2022-11-20T07:21:17.618Z,19.80
2022-11-20T07:24:05.380Z,18.30
2022-11-20T07:26:53.125Z,17.40
2022-11-20T07:29:42.612Z,16.65
2022-11-20T07:32:30.170Z,24.58
2022-11-20T07:35:18.222Z,21.00
2022-11-20T07:38:05.900Z,21.08
2022-11-20T07:40:57.492Z,17.42
2022-11-20T07:43:45.288Z,17.92
2022-11-20T07:46:34.723Z,18.83
2022-11-20T07:49:22.780Z,16.17
2022-11-20T07:52:11.018Z,18.35
2022-11-20T07:54:59.047Z,17.88
2022-11-20T07:57:46.841Z,17.92
2022-11-20T08:00:34.895Z,16.05
2022-11-20T08:03:25.859Z,19.70
2022-11-20T08:06:14.007Z,23.60
2022-11-20T08:09:02.249Z,21.27
2022-11-20T08:12:07.583Z,23.42
2022-11-20T08:14:56.357Z,18.80
2022-11-20T08:17:56.770Z,18.52
2022-11-20T08:20:53.588Z,17.45
2022-11-20T08:23:41.243Z,19.73
2022-11-20T08:26:29.451Z,18.73
2022-11-20T08:29:17.139Z,16.90
2022-11-20T08:32:05.333Z,28.55
2022-11-20T08:34:53.455Z,24.00
2022-11-20T08:37:43.357Z,27.48
2022-11-20T08:40:31.370Z,27.23
2022-11-20T08:43:19.118Z,19.13
2022-11-20T08:46:07.233Z,20.25
2022-11-20T08:48:55.493Z,16.15
2022-11-20T08:51:44.090Z,16.58
2022-11-20T08:54:33.293Z,22.02
2022-11-20T08:57:21.309Z,17.88
2022-11-20T09:00:12.512Z,18.73
2022-11-20T09:03:01.859Z,20.95
2022-11-20T09:05:50.036Z,19.30
2022-11-20T09:08:38.481Z,19.02
2022-11-20T09:11:27.882Z,18.73
2022-11-20T09:14:15.563Z,24.95
2022-11-20T09:17:03.602Z,17.58
2022-11-20T09:19:51.597Z,16.27
2022-11-20T09:22:42.729Z,17.13
2022-11-20T09:25:30.539Z,18.70
2022-11-20T09:28:20.492Z,21.90
2022-11-20T09:31:08.938Z,17.13
2022-11-20T09:33:57.025Z,17.20
2022-11-20T09:36:44.570Z,17.05
2022-11-20T09:39:32.437Z,17.25
2022-11-20T09:42:31.996Z,16.10
2022-11-20T09:45:26.751Z,21.63
2022-11-20T09:48:39.004Z,18.27
2022-11-20T09:51:38.135Z,20.95
2022-11-20T09:54:31.720Z,17.50
2022-11-20T09:57:23.929Z,19.23
2022-11-20T10:00:16.482Z,18.20
2022-11-20T10:03:15.224Z,17.30
2022-11-20T10:06:05.111Z,15.50
2022-11-20T10:09:01.792Z,19.67
2022-11-20T10:11:59.990Z,20.33
2022-11-20T10:15:18.347Z,21.02
2022-11-20T10:18:23.576Z,17.38
2022-11-20T10:21:18.466Z,16.83
2022-11-20T10:24:25.707Z,30.05
2022-11-20T10:27:42.408Z,26.20
2022-11-20T10:30:31.609Z,18.90
2022-11-20T10:33:24.721Z,23.13
2022-11-20T10:36:21.366Z,19.73
2022-11-20T10:39:17.835Z,24.48
2022-11-20T10:42:10.897Z,21.90
2022-11-20T10:45:12.127Z,19.95
2022-11-20T10:48:12.823Z,23.67
2022-11-20T10:51:20.325Z,28.17
2022-11-20T10:54:19.374Z,26.15
2022-11-20T10:57:19.934Z,21.58
2022-11-20T11:00:11.765Z,21.90
2022-11-20T11:03:03.329Z,21.27
2022-11-20T11:05:56.093Z,21.88
2022-11-20T11:11:35.759Z,27.08
2022-11-20T11:14:25.550Z,22.80
2022-11-20T11:17:24.477Z,21.60
2022-11-20T11:20:21.940Z,22.50
2022-11-20T11:23:35.407Z,20.40
2022-11-20T11:26:26.775Z,32.08
2022-11-20T11:29:21.182Z,25.13
2022-11-20T11:32:10.996Z,25.92
2022-11-20T11:35:03.412Z,22.70
2022-11-20T11:37:52.464Z,27.60
2022-11-20T11:40:42.015Z,27.23
2022-11-20T11:43:52.064Z,23.52
2022-11-20T11:46:41.424Z,26.23
2022-11-20T11:49:29.092Z,22.33
2022-11-20T11:52:20.661Z,21.27
2022-11-20T11:55:13.254Z,21.80
2022-11-20T11:58:19.019Z,18.20
2022-11-20T12:01:21.138Z,21.17
2022-11-20T12:04:19.093Z,19.90
2022-11-20T12:07:44.220Z,19.83
2022-11-20T12:10:32.071Z,22.02
2022-11-20T12:13:43.002Z,20.10
2022-11-20T12:16:36.216Z,19.40
2022-11-20T12:19:24.575Z,19.30
2022-11-20T12:22:28.770Z,17.85
2022-11-20T12:25:20.693Z,17.55
2022-11-20T12:28:41.323Z,18.17
2022-11-20T12:32:26.650Z,16.85
2022-11-20T12:35:30.103Z,16.52
2022-11-20T12:38:49.426Z,14.48
2022-11-20T12:42:25.329Z,13.85
2022-11-20T12:46:07.694Z,11.85
2022-11-20T12:53:46.046Z,12.00
2022-11-20T12:56:51.208Z,13.40
2022-11-20T13:00:14.843Z,14.98
2022-11-20T13:03:36.322Z,10.95
2022-11-20T13:06:27.968Z,9.75
2022-11-20T13:09:18.753Z,10.70
2022-11-20T13:12:13.295Z,10.02
2022-11-20T13:15:12.916Z,9.20
2022-11-20T13:18:02.391Z,10.43
2022-11-20T13:20:50.660Z,9.38
2022-11-20T13:23:40.080Z,8.05
2022-11-20T13:26:29.503Z,10.18
2022-11-20T13:29:21.013Z,9.48
2022-11-20T13:32:16.561Z,10.82
2022-11-20T13:35:06.635Z,10.02
2022-11-20T13:38:03.669Z,9.52
2022-11-20T13:40:58.551Z,9.15
2022-11-20T13:43:49.251Z,7.47
2022-11-20T13:46:42.111Z,9.48
2022-11-20T13:49:34.630Z,11.57
2022-11-20T13:52:40.808Z,9.68
2022-11-20T13:55:38.550Z,9.90
2022-11-20T13:58:38.178Z,9.05
2022-11-20T14:01:29.061Z,8.57
2022-11-20T14:04:22.842Z,9.48
2022-11-20T14:07:15.004Z,8.52
2022-11-20T14:10:03.556Z,8.70
2022-11-20T14:12:51.970Z,9.50
2022-11-20T14:15:44.831Z,10.25
2022-11-20T14:18:33.302Z,8.23
2022-11-20T14:21:26.579Z,9.63
2022-11-20T14:24:15.975Z,9.23
2022-11-20T14:27:04.061Z,11.63
2022-11-20T14:29:53.241Z,11.63
2022-11-20T14:32:43.284Z,14.77
2022-11-20T14:35:33.111Z,14.95
2022-11-20T14:38:26.109Z,17.83
2022-11-20T14:41:21.191Z,17.60
2022-11-20T14:44:11.520Z,19.35
2022-11-20T14:47:00.555Z,15.73
2022-11-20T14:49:51.113Z,16.67
2022-11-20T14:52:38.959Z,15.65
2022-11-20T14:55:32.787Z,14.43
2022-11-20T14:58:25.587Z,15.90
2022-11-20T15:01:16.158Z,13.10
2022-11-20T15:04:08.534Z,14.77
2022-11-20T15:06:59.790Z,15.73
2022-11-20T15:09:47.545Z,14.35
2022-11-20T15:12:37.969Z,14.02
2022-11-20T15:15:32.224Z,13.00
2022-11-20T15:18:23.566Z,13.98
2022-11-20T15:21:14.495Z,14.82
2022-11-20T15:24:03.490Z,13.57
2022-11-20T15:26:51.668Z,12.15
2022-11-20T15:29:39.931Z,11.88
2022-11-20T15:32:33.757Z,11.15
2022-11-20T15:35:24.751Z,12.25
2022-11-20T15:38:12.864Z,12.23
2022-11-20T15:41:02.574Z,13.18
2022-11-20T15:43:50.902Z,13.65
2022-11-20T15:46:42.466Z,13.30
2022-11-20T15:49:30.501Z,9.88
2022-11-20T15:52:18.930Z,12.18
2022-11-20T15:55:10.128Z,12.80
2022-11-20T15:57:59.579Z,14.93
2022-11-20T16:00:47.954Z,14.82
2022-11-20T16:03:35.770Z,13.55
2022-11-20T16:06:23.823Z,9.45
2022-11-20T16:09:11.924Z,12.10
2022-11-20T16:12:00.303Z,14.43
2022-11-20T16:15:12.292Z,9.77
2022-11-20T16:18:01.332Z,13.90
2022-11-20T16:20:52.272Z,12.05
2022-11-20T16:23:40.038Z,12.05
2022-11-20T16:26:28.131Z,10.18
2022-11-20T16:29:16.569Z,10.02
2022-11-20T16:32:05.903Z,18.17
2022-11-20T16:34:53.760Z,12.20
2022-11-20T16:37:42.820Z,11.82
2022-11-20T16:40:30.611Z,12.80
2022-11-20T16:43:18.531Z,13.90
2022-11-20T16:46:07.414Z,11.10
2022-11-20T16:48:58.515Z,9.98
2022-11-20T16:51:46.123Z,14.95
2022-11-20T16:54:34.268Z,15.95
2022-11-20T16:57:22.476Z,10.48
2022-11-20T17:00:11.891Z,12.15
2022-11-20T17:02:59.617Z,14.13
2022-11-20T17:05:48.985Z,15.85
2022-11-20T17:08:37.401Z,11.35
2022-11-20T17:11:25.341Z,11.02
2022-11-20T17:14:13.606Z,14.73
2022-11-20T17:17:01.621Z,15.02
2022-11-20T17:19:49.543Z,14.70
2022-11-20T17:22:39.007Z,16.35
2022-11-20T17:25:26.934Z,12.40
2022-11-20T17:28:15.176Z,12.57
2022-11-20T17:31:03.303Z,10.90
2022-11-20T17:33:51.497Z,17.77
2022-11-20T17:36:44.800Z,14.48
2022-11-20T17:39:34.995Z,14.20
2022-11-20T17:42:29.787Z,10.82
2022-11-20T17:45:17.698Z,10.70
2022-11-20T17:48:06.321Z,10.23
2022-11-20T17:50:54.332Z,9.55
2022-11-20T17:53:43.618Z,9.15
2022-11-20T17:56:51.889Z,9.68
2022-11-20T17:59:40.281Z,12.75
2022-11-20T18:02:28.046Z,14.27
2022-11-20T18:05:16.622Z,9.23
2022-11-20T18:08:04.606Z,9.85
2022-11-20T18:10:52.724Z,8.60
2022-11-20T18:14:00.279Z,13.93
2022-11-20T18:16:50.010Z,9.60
2022-11-20T18:19:48.018Z,8.75
2022-11-20T18:22:48.099Z,9.50
2022-11-20T18:25:36.247Z,11.02
2022-11-20T18:28:24.693Z,13.88
2022-11-20T18:31:15.010Z,21.55
2022-11-20T18:34:03.195Z,38.10
2022-11-20T18:36:51.015Z,35.17
2022-11-20T18:39:39.298Z,17.27
2022-11-20T18:42:44.723Z,24.35
2022-11-20T18:45:32.458Z,20.48
2022-11-20T18:48:21.846Z,15.98
2022-11-20T18:51:11.895Z,14.85
2022-11-20T18:54:00.428Z,18.70
2022-11-20T18:56:48.473Z,14.88
2022-11-20T18:59:36.519Z,24.35
2022-11-20T19:02:25.005Z,13.38
2022-11-20T19:05:15.641Z,18.73
2022-11-20T19:08:03.290Z,19.73
2022-11-20T19:10:51.614Z,16.17
2022-11-20T19:13:40.574Z,14.50
2022-11-20T19:16:28.735Z,21.40
2022-11-20T19:19:17.069Z,21.00
2022-11-20T19:22:06.781Z,16.42
2022-11-20T19:24:54.715Z,17.02
2022-11-20T19:27:42.641Z,14.68
2022-11-20T19:30:30.663Z,16.08
2022-11-20T19:33:18.529Z,14.27
2022-11-20T19:36:15.203Z,17.60
2022-11-20T19:39:06.649Z,13.68
2022-11-20T19:41:54.610Z,14.02
2022-11-20T19:44:42.395Z,12.60
2022-11-20T19:48:00.568Z,15.65
2022-11-20T19:50:38.045Z,18.55
2022-11-20T19:53:26.282Z,15.02
2022-11-20T19:56:15.888Z,15.13
2022-11-20T19:59:04.484Z,13.38
2022-11-20T20:01:53.174Z,13.90
2022-11-20T20:04:41.372Z,16.95
2022-11-20T20:07:29.540Z,9.40
2022-11-20T20:10:20.241Z,9.77
2022-11-20T20:13:09.868Z,9.80
2022-11-20T20:15:57.843Z,9.60
2022-11-20T20:18:46.894Z,11.18
2022-11-20T20:21:36.344Z,11.15
2022-11-20T20:24:24.616Z,13.90
2022-11-20T20:27:12.445Z,17.73
2022-11-20T20:30:01.987Z,12.32
2022-11-20T20:32:55.858Z,10.85
2022-11-20T20:35:45.481Z,10.52
2022-11-20T20:38:33.801Z,9.40
2022-11-20T20:41:23.580Z,12.63
2022-11-20T20:44:29.008Z,12.70
2022-11-20T20:47:18.484Z,11.75
2022-11-20T20:50:08.735Z,10.95
2022-11-20T20:52:56.935Z,8.40
2022-11-20T20:55:54.049Z,9.18
2022-11-20T20:58:43.035Z,8.43
2022-11-20T21:01:31.061Z,10.02
2022-11-20T21:04:20.707Z,9.63
2022-11-20T21:07:08.933Z,8.25
2022-11-20T21:09:56.787Z,10.43
2022-11-20T21:12:44.416Z,5.15
2022-11-20T21:15:32.506Z,4.88
2022-11-20T21:18:23.233Z,4.63
2022-11-20T21:21:32.581Z,5.60
2022-11-20T21:24:20.971Z,6.60
2022-11-20T21:27:09.152Z,5.13
2022-11-20T21:29:57.907Z,4.95
2022-11-20T21:32:45.832Z,3.40
2022-11-20T21:35:35.868Z,3.78
2022-11-20T21:38:25.116Z,2.90
2022-11-20T21:41:14.591Z,4.63
2022-11-20T21:47:13.514Z,3.25
2022-11-20T21:50:01.655Z,4.47
2022-11-20T21:52:49.737Z,7.38
2022-11-20T21:55:39.249Z,5.90
2022-11-20T21:58:28.212Z,5.75
2022-11-20T22:01:18.760Z,4.95
2022-11-20T22:04:08.137Z,2.75
2022-11-20T22:06:56.012Z,3.47
2022-11-20T22:09:44.197Z,2.72
2022-11-20T22:12:33.838Z,4.28
2022-11-20T22:15:45.852Z,4.03
2022-11-20T22:18:28.674Z,2.72
2022-11-20T22:21:17.897Z,3.53
2022-11-20T22:24:05.831Z,2.42
2022-11-20T22:26:53.856Z,4.05
2022-11-20T22:29:43.494Z,2.97
2022-11-20T22:32:31.614Z,2.45
2022-11-20T22:35:19.666Z,2.13
2022-11-20T22:38:07.712Z,1.67
2022-11-20T22:40:55.812Z,2.83
2022-11-20T22:43:45.314Z,1.67
2022-11-20T22:46:36.215Z,3.50
2022-11-20T22:49:24.170Z,1.70
2022-11-20T22:52:12.031Z,1.83
2022-11-20T22:55:05.358Z,1.90
2022-11-20T22:57:55.065Z,4.63
2022-11-20T23:00:46.654Z,1.67
2022-11-20T23:03:36.189Z,2.08
2022-11-20T23:06:25.334Z,1.58
2022-11-20T23:09:13.756Z,1.83
2022-11-20T23:12:01.509Z,1.83
2022-11-20T23:14:49.471Z,1.50
2022-11-20T23:17:37.788Z,1.40
2022-11-20T23:20:27.395Z,1.70
2022-11-20T23:23:15.085Z,1.80
2022-11-20T23:26:04.090Z,2.72
2022-11-20T23:28:53.662Z,1.40
2022-11-20T23:31:41.744Z,1.63
2022-11-20T23:34:29.865Z,1.50
2022-11-20T23:37:18.924Z,1.60
2022-11-20T23:40:08.054Z,1.67
2022-11-20T23:43:13.351Z,1.58
2022-11-20T23:46:02.918Z,1.35
2022-11-20T23:48:51.087Z,2.30
2022-11-20T23:51:39.051Z,1.73
2022-11-20T23:54:28.555Z,1.17
2022-11-20T23:57:16.933Z,1.98
